Time;durP1;ratioP1;P1;durP2;ratioP2;P2;SDS_P1;SDS_P2;PMS_P1;PMS_P2;Temp;Humidity;BMP_temperature;BMP_pressure;BME280_temperature;BME280_humidity;BME280_pressure;Samples;Min_cycle;Max_cycle;Signal;HPM_P1;HPM_P2
2023/09/01 00:01:42;;;;;;;0.10;0.10;;;;;;;19.36;64.37;100081.91;7364937;19;20577;-58
2023/09/01 00:04:07;;;;;;;0.10;0.10;;;;;;;19.36;64.21;100079.25;7370536;19;20007;-59
2023/09/01 00:06:33;;;;;;;0.03;0.03;;;;;;;19.36;64.65;100079.25;7367187;19;20002;-59
2023/09/01 00:08:58;;;;;;;0.10;0.10;;;;;;;19.36;64.55;100079.25;7368064;19;20030;-60
2023/09/01 00:11:23;;;;;;;0.05;0.05;;;;;;;19.36;64.73;100075.72;7366731;19;20074;-60
2023/09/01 00:13:49;;;;;;;0.10;0.10;;;;;;;19.36;64.80;100075.72;7366185;19;20577;-57
2023/09/01 00:16:15;;;;;;;0.10;0.10;;;;;;;19.35;64.82;100074.06;7363910;19;20425;-59
2023/09/01 00:18:40;;;;;;;0.10;0.10;;;;;;;19.30;64.91;100071.72;7365918;19;20011;-59
2023/09/01 00:21:06;;;;;;;0.10;0.10;;;;;;;19.35;64.74;100074.06;7365827;19;19999;-59
2023/09/01 00:23:32;;;;;;;0.10;0.10;;;;;;;19.34;64.74;100075.84;7368176;19;20815;-60
2023/09/01 00:25:59;;;;;;;0.00;0.00;;;;;;;19.35;64.77;100074.91;7358331;19;20753;-60
2023/09/01 00:28:25;;;;;;;;;;;;;;;19.42;63.48;100078.81;7367827;19;20042;-59
2023/09/01 00:30:52;;;;;;;0.00;0.00;;;;;;;19.37;64.45;100088.88;7362567;19;19910;-57
2023/09/01 00:33:17;;;;;;;0.10;0.10;;;;;;;19.35;64.46;100082.84;7364514;19;20042;-59
2023/09/01 00:35:43;;;;;;;0.05;0.05;;;;;;;19.33;64.78;100082.09;7365105;19;20002;-57
2023/09/01 00:38:08;;;;;;;0.10;0.10;;;;;;;19.32;64.83;100080.41;7368454;19;20003;-60
2023/09/01 00:40:33;;;;;;;0.10;0.10;;;;;;;19.32;64.51;100074.28;7362838;19;20006;-59
2023/09/01 00:42:59;;;;;;;0.10;0.10;;;;;;;19.30;64.63;100077.00;7366305;19;20044;-60
2023/09/01 00:45:24;;;;;;;0.10;0.10;;;;;;;19.30;64.72;100076.16;7365271;19;20810;-59
2023/09/01 00:47:50;;;;;;;0.10;0.10;;;;;;;19.30;64.52;100077.00;7367658;19;20002;-57
2023/09/01 00:50:15;;;;;;;0.00;0.00;;;;;;;19.30;64.85;100077.00;7373353;19;20006;-59
2023/09/01 00:52:41;;;;;;;0.10;0.10;;;;;;;19.29;64.59;100083.25;7363770;19;20048;-60
2023/09/01 00:55:06;;;;;;;0.10;0.10;;;;;;;19.30;64.65;100081.47;7367230;19;20010;-58
2023/09/01 00:57:32;;;;;;;0.00;0.00;;;;;;;19.29;65.04;100079.78;7365635;19;20002;-61
2023/09/01 00:59:58;;;;;;;0.10;0.10;;;;;;;19.30;64.78;100082.31;7364727;19;20351;-59
2023/09/01 01:02:25;;;;;;;0.10;0.10;;;;;;;19.28;64.69;100084.22;7364257;19;20024;-59
2023/09/01 01:04:50;;;;;;;;;;;;;;;19.31;63.66;100078.72;7373137;19;20034;-60
2023/09/01 01:07:50;;;;;;;0.10;0.10;;;;;;;19.35;63.80;100084.63;7369381;19;19945;-59
2023/09/01 01:10:19;;;;;;;0.10;0.10;;;;;;;19.28;64.61;100084.22;7363847;19;20018;-60
2023/09/01 01:13:18;;;;;;;0.00;0.00;;;;;;;19.32;63.83;100088.38;7364025;19;20433;-59
2023/09/01 01:15:43;;;;;;;0.10;0.10;;;;;;;19.26;64.51;100085.25;7365125;19;20543;-60
2023/09/01 01:18:13;;;;;;;0.00;0.00;;;;;;;19.27;64.70;100087.00;7364538;19;20039;-59
2023/09/01 01:20:42;;;;;;;0.10;0.10;;;;;;;19.15;65.14;100070.13;7367974;19;20627;-59
2023/09/01 01:23:16;;;;;;;0.10;0.10;;;;;;;19.27;64.52;100084.34;7372707;19;20121;-60
2023/09/01 01:25:49;;;;;;;0.10;0.10;;;;;;;19.26;64.51;100083.50;7365788;19;20426;-60
2023/09/01 01:28:15;;;;;;;0.10;0.10;;;;;;;19.23;65.24;100083.69;7369540;19;20514;-61
2023/09/01 01:30:41;;;;;;;0.10;0.10;;;;;;;19.22;64.84;100082.00;7370479;19;20010;-59
2023/09/01 01:33:24;;;;;;;0.10;0.10;;;;;;;19.25;64.59;100081.78;7372794;19;20021;-59
2023/09/01 01:35:55;;;;;;;0.10;0.10;;;;;;;19.22;64.63;100081.16;7362532;19;20010;-59
2023/09/01 01:38:26;;;;;;;0.10;0.10;;;;;;;19.24;65.10;100081.88;7366680;19;20034;-60
2023/09/01 01:40:58;;;;;;;0.10;0.10;;;;;;;19.24;65.02;100077.44;7367243;19;20010;-58
2023/09/01 01:43:27;;;;;;;0.10;0.10;;;;;;;19.24;64.94;100080.09;7364418;19;20546;-61
2023/09/01 01:45:54;;;;;;;0.10;0.10;;;;;;;19.22;64.90;100083.81;7364401;19;20478;-59
2023/09/01 01:48:19;;;;;;;0.10;0.10;;;;;;;19.18;64.53;100076.06;7362179;19;20482;-60
2023/09/01 01:50:45;;;;;;;0.10;0.10;;;;;;;19.14;65.08;100073.72;7363650;19;20012;-59
2023/09/01 01:53:13;;;;;;;0.10;0.10;;;;;;;19.21;65.19;100084.72;7369496;19;20496;-61
2023/09/01 01:55:38;;;;;;;0.10;0.10;;;;;;;19.22;65.04;100086.44;7362321;19;20042;-61
2023/09/01 01:58:05;;;;;;;0.10;0.10;;;;;;;19.18;65.38;100077.88;7357528;19;20011;-60
2023/09/01 02:00:31;;;;;;;0.10;0.10;;;;;;;19.17;64.84;100086.75;7364613;19;20089;-60
2023/09/01 02:02:56;;;;;;;0.10;0.10;;;;;;;19.21;64.87;100088.25;7356532;19;20749;-58
2023/09/01 02:05:22;;;;;;;0.10;0.10;;;;;;;19.16;65.15;100085.91;7364102;19;20037;-61
2023/09/01 02:07:47;;;;;;;0.10;0.10;;;;;;;19.20;65.09;100097.13;7362356;19;20013;-59
2023/09/01 02:10:13;;;;;;;0.10;0.10;;;;;;;19.19;65.18;100090.13;7362384;19;20045;-60
2023/09/01 02:12:39;;;;;;;0.10;0.10;;;;;;;19.19;65.06;100085.69;7363205;19;20012;-60
2023/09/01 02:15:08;;;;;;;0.10;0.10;;;;;;;19.19;64.79;100084.84;7361238;19;20022;-60
2023/09/01 02:17:35;;;;;;;0.00;0.00;;;;;;;19.19;64.93;100090.13;7360555;19;20019;-59
2023/09/01 02:20:00;;;;;;;0.10;0.10;;;;;;;19.19;64.63;100095.44;7359528;19;20484;-59
2023/09/01 02:22:26;;;;;;;0.10;0.10;;;;;;;19.18;64.34;100094.59;7365469;19;20010;-59
2023/09/01 02:24:51;;;;;;;0.03;0.03;;;;;;;19.17;64.40;100092.06;7364582;19;20010;-59
2023/09/01 02:27:17;;;;;;;0.10;0.10;;;;;;;19.16;64.58;100091.22;7365626;19;20045;-59
2023/09/01 02:29:42;;;;;;;0.10;0.10;;;;;;;19.16;64.22;100095.66;7358543;19;20536;-59
2023/09/01 02:32:08;;;;;;;0.00;0.00;;;;;;;19.15;64.73;100099.22;7357432;19;19995;-59
2023/09/01 02:34:33;;;;;;;0.10;0.10;;;;;;;19.14;64.64;100102.84;7364368;19;20038;-59
2023/09/01 02:36:59;;;;;;;0.10;0.10;;;;;;;19.13;64.64;100093.22;7366191;19;20011;-60
2023/09/01 02:39:25;;;;;;;0.00;0.00;;;;;;;19.12;64.43;100092.38;7361764;19;20021;-60
2023/09/01 02:41:50;;;;;;;0.10;0.10;;;;;;;19.12;64.20;100091.53;7358470;19;20661;-58
2023/09/01 02:44:15;;;;;;;0.10;0.10;;;;;;;19.11;64.52;100095.09;7361153;19;20013;-61
2023/09/01 02:46:41;;;;;;;0.10;0.10;;;;;;;19.11;64.51;100100.38;7363333;19;20006;-57
2023/09/01 02:49:06;;;;;;;0.00;0.00;;;;;;;19.09;64.14;100095.22;7357799;19;20014;-59
2023/09/01 02:51:32;;;;;;;0.10;0.10;;;;;;;19.09;64.52;100107.59;7362884;19;20014;-60
2023/09/01 02:53:58;;;;;;;0.10;0.10;;;;;;;19.09;64.42;100104.94;7357731;19;20824;-59
2023/09/01 02:56:23;;;;;;;0.10;0.10;;;;;;;19.08;64.54;100105.91;7365439;19;20392;-58
2023/09/01 02:58:49;;;;;;;0.10;0.10;;;;;;;19.06;64.38;100105.16;7363264;19;20013;-60
2023/09/01 03:01:14;;;;;;;0.08;0.08;;;;;;;19.06;64.58;100105.16;7368441;19;20013;-59
2023/09/01 03:03:42;;;;;;;0.10;0.10;;;;;;;19.07;64.31;100104.22;7364497;19;20043;-60
2023/09/01 03:06:10;;;;;;;0.00;0.00;;;;;;;19.04;64.30;100101.78;7368455;19;20374;-60
2023/09/01 03:08:37;;;;;;;0.00;0.00;;;;;;;19.04;64.79;100101.78;7366972;19;20010;-60
2023/09/01 03:11:03;;;;;;;0.10;0.10;;;;;;;19.03;64.19;100114.16;7369795;19;20010;-58
2023/09/01 03:13:28;;;;;;;0.10;0.10;;;;;;;18.93;64.65;100099.84;7376255;19;20035;-60
2023/09/01 03:15:54;;;;;;;0.10;0.10;;;;;;;19.02;64.42;100119.56;7369131;19;20399;-58
2023/09/01 03:18:20;;;;;;;0.10;0.10;;;;;;;19.00;64.23;100116.16;7357022;19;20029;-60
2023/09/01 03:20:45;;;;;;;0.00;0.00;;;;;;;18.99;64.58;100110.00;7358089;19;20470;-59
2023/09/01 03:23:11;;;;;;;0.00;0.00;;;;;;;18.97;64.26;100108.44;7370262;19;20055;-58
2023/09/01 03:25:36;;;;;;;0.10;0.10;;;;;;;18.98;64.56;100112.78;7370058;19;20010;-59
2023/09/01 03:28:02;;;;;;;0.10;0.10;;;;;;;18.97;64.20;100116.38;7369434;19;20007;-60
2023/09/01 03:30:28;;;;;;;0.10;0.10;;;;;;;18.97;64.68;100116.38;7364732;19;20015;-60
2023/09/01 03:32:53;;;;;;;0.10;0.10;;;;;;;18.95;64.27;100115.59;7368684;19;20013;-60
2023/09/01 03:35:19;;;;;;;0.10;0.10;;;;;;;18.93;64.79;100119.22;7365900;19;20014;-61
2023/09/01 03:37:44;;;;;;;0.00;0.00;;;;;;;18.95;64.59;100120.91;7369613;19;20046;-58
2023/09/01 03:40:10;;;;;;;0.10;0.10;;;;;;;18.93;64.51;100119.22;7371845;19;20006;-59
2023/09/01 03:42:39;;;;;;;0.10;0.10;;;;;;;18.95;64.43;100123.53;7368319;19;20025;-60
2023/09/01 03:45:05;;;;;;;0.00;0.00;;;;;;;18.92;64.73;100128.09;7364470;19;20031;-60
2023/09/01 03:47:31;;;;;;;0.10;0.10;;;;;;;18.92;64.87;100130.75;7369158;19;20034;-57
2023/09/01 03:49:56;;;;;;;0.00;0.00;;;;;;;18.92;65.06;100125.47;7370262;19;20006;-60
2023/09/01 03:52:22;;;;;;;0.00;0.00;;;;;;;18.91;65.05;100126.41;7367411;19;20685;-60
2023/09/01 03:54:47;;;;;;;0.08;0.08;;;;;;;18.91;64.89;100123.78;7368729;19;20119;-61
2023/09/01 03:57:15;;;;;;;0.10;0.10;;;;;;;18.91;64.58;100131.72;7344907;19;20490;-60
2023/09/01 03:59:41;;;;;;;0.10;0.10;;;;;;;18.91;64.91;100130.88;7367516;19;20347;-60
2023/09/01 04:02:06;;;;;;;0.10;0.10;;;;;;;18.86;64.87;100119.75;7366703;19;20026;-58
2023/09/01 04:04:32;;;;;;;0.10;0.10;;;;;;;18.90;64.74;100127.34;7364956;19;20002;-60
2023/09/01 04:06:58;;;;;;;0.10;0.10;;;;;;;18.91;64.80;100133.50;7368238;19;20355;-59
2023/09/01 04:09:23;;;;;;;0.10;0.10;;;;;;;18.87;64.45;100124.91;7363098;19;20470;-61
2023/09/01 04:11:49;;;;;;;0.10;0.10;;;;;;;18.90;64.78;100132.63;7368930;19;20021;-59
2023/09/01 04:14:14;;;;;;;0.10;0.10;;;;;;;18.90;64.53;100129.97;7366882;19;20014;-60
2023/09/01 04:16:40;;;;;;;0.00;0.00;;;;;;;18.90;64.39;100127.34;7366164;19;20031;-58
2023/09/01 04:19:05;;;;;;;0.10;0.10;;;;;;;18.90;64.61;100129.97;7368288;19;20027;-60
2023/09/01 04:21:30;;;;;;;0.10;0.10;;;;;;;18.89;64.65;100125.66;7374898;19;20033;-58
2023/09/01 04:23:56;;;;;;;0.10;0.10;;;;;;;18.89;64.98;100124.81;7366107;19;20082;-60
2023/09/01 04:26:22;;;;;;;0.10;0.10;;;;;;;18.87;64.59;100132.84;7367658;19;20533;-58
2023/09/01 04:28:47;;;;;;;0.10;0.10;;;;;;;18.86;64.74;100125.88;7362461;19;20088;-58
2023/09/01 04:31:27;;;;;;;0.10;0.10;;;;;;;18.90;64.46;100131.78;7371143;19;20017;-59
2023/09/01 04:33:53;;;;;;;0.10;0.10;;;;;;;18.84;64.82;100134.84;7365434;19;20034;-59
2023/09/01 04:36:18;;;;;;;0.10;0.10;;;;;;;18.81;65.38;100135.91;7365455;19;20014;-59
2023/09/01 04:38:44;;;;;;;0.10;0.10;;;;;;;18.81;65.04;100135.91;7363045;19;19998;-58
2023/09/01 04:41:09;;;;;;;0.10;0.10;;;;;;;18.79;64.85;100135.16;7367739;19;20018;-60
2023/09/01 04:43:35;;;;;;;0.10;0.10;;;;;;;18.78;65.01;100133.47;7365670;19;20007;-58
2023/09/01 04:46:00;;;;;;;0.00;0.00;;;;;;;18.78;64.92;100136.09;7365797;19;20049;-60
2023/09/01 04:48:26;;;;;;;0.10;0.10;;;;;;;18.75;65.05;100138.94;7370112;19;20426;-58
2023/09/01 04:50:52;;;;;;;0.10;0.10;;;;;;;18.70;65.16;100119.03;7368709;19;20006;-59
2023/09/01 04:53:18;;;;;;;0.10;0.10;;;;;;;18.76;65.41;100130.06;7364631;19;20466;-60
2023/09/01 04:55:43;;;;;;;0.10;0.10;;;;;;;18.63;65.44;100116.75;7366564;19;20764;-60
2023/09/01 04:58:09;;;;;;;0.10;0.10;;;;;;;18.67;65.69;100120.06;7366073;19;20010;-60
2023/09/01 05:00:35;;;;;;;0.10;0.10;;;;;;;18.73;65.38;100137.34;7366547;19;20014;-57
2023/09/01 05:03:01;;;;;;;0.00;0.00;;;;;;;18.71;65.32;100137.47;7361782;19;20042;-58
2023/09/01 05:05:26;;;;;;;0.10;0.10;;;;;;;18.71;65.57;100137.47;7366727;19;22074;-60
2023/09/01 05:07:52;;;;;;;0.08;0.08;;;;;;;18.69;65.76;100134.06;7364779;19;20013;-58
2023/09/01 05:10:17;;;;;;;0.10;0.10;;;;;;;18.67;65.40;100130.63;7362908;19;21487;-61
2023/09/01 05:12:43;;;;;;;0.10;0.10;;;;;;;18.69;65.20;100136.69;7365023;19;20796;-60
2023/09/01 05:15:08;;;;;;;0.10;0.10;;;;;;;18.68;65.55;100137.66;7365325;19;20852;-60
2023/09/01 05:17:34;;;;;;;0.10;0.10;;;;;;;18.68;65.71;100137.66;7366472;19;20042;-59
2023/09/01 05:19:59;;;;;;;0.00;0.00;;;;;;;18.67;65.57;100143.88;7364103;19;20011;-59
2023/09/01 05:22:25;;;;;;;0.10;0.10;;;;;;;18.67;65.76;100143.88;7363739;19;20038;-60
2023/09/01 05:24:50;;;;;;;0.00;0.00;;;;;;;18.66;65.48;100150.94;7368193;19;20010;-58
2023/09/01 05:27:19;;;;;;;0.03;0.03;;;;;;;18.67;65.28;100149.16;7368543;19;20031;-59
2023/09/01 05:29:48;;;;;;;0.10;0.10;;;;;;;18.70;65.41;100156.91;7362773;19;20026;-60
2023/09/01 05:32:15;;;;;;;0.00;0.00;;;;;;;18.67;65.49;100151.78;7367777;19;20010;-62
2023/09/01 05:34:41;;;;;;;0.10;0.10;;;;;;;18.67;65.77;100167.66;7361663;19;20014;-57
2023/09/01 05:37:07;;;;;;;0.05;0.05;;;;;;;18.65;65.62;100153.69;7360560;19;20010;-59
2023/09/01 05:39:36;;;;;;;0.10;0.10;;;;;;;18.65;65.73;100158.97;7364927;19;20528;-58
2023/09/01 05:42:02;;;;;;;0.00;0.00;;;;;;;18.63;65.69;100166.16;7361311;19;21457;-61
2023/09/01 05:44:28;;;;;;;0.00;0.00;;;;;;;18.64;66.15;100171.34;7362073;19;20009;-59
2023/09/01 05:46:54;;;;;;;0.10;0.10;;;;;;;18.62;65.80;100180.34;7361755;19;20074;-59
2023/09/01 05:49:19;;;;;;;0.10;0.10;;;;;;;18.61;65.93;100183.94;7362746;19;20691;-58
2023/09/01 05:51:45;;;;;;;0.10;0.10;;;;;;;18.59;65.93;100183.16;7363040;19;20014;-59
2023/09/01 05:54:10;;;;;;;0.10;0.10;;;;;;;18.53;66.41;100184.41;7365829;19;20007;-60
2023/09/01 05:56:35;;;;;;;0.10;0.10;;;;;;;18.57;66.30;100193.00;7363221;19;20010;-60
2023/09/01 05:59:01;;;;;;;0.00;0.00;;;;;;;18.55;66.47;100194.88;7362072;19;20661;-60
2023/09/01 06:01:32;;;;;;;0.00;0.00;;;;;;;18.46;66.29;100185.75;7358992;19;20017;-58
2023/09/01 06:03:58;;;;;;;0.10;0.10;;;;;;;18.51;66.26;100194.25;7366500;19;20011;-58
2023/09/01 06:06:24;;;;;;;0.10;0.10;;;;;;;18.51;66.56;100203.97;7363613;19;20009;-58
2023/09/01 06:08:49;;;;;;;0.05;0.05;;;;;;;18.43;66.51;100193.88;7362739;19;20011;-59
2023/09/01 06:11:15;;;;;;;0.10;0.10;;;;;;;18.50;66.58;100212.84;7361914;19;20006;-59
2023/09/01 06:13:40;;;;;;;0.08;0.08;;;;;;;18.50;66.32;100212.84;7362754;19;20348;-60
2023/09/01 06:16:06;;;;;;;0.00;0.00;;;;;;;18.49;66.13;100219.06;7364481;19;20784;-61
2023/09/01 06:18:31;;;;;;;0.10;0.10;;;;;;;18.51;66.41;100222.50;7371335;19;20010;-59
2023/09/01 06:20:56;;;;;;;0.00;0.00;;;;;;;18.47;66.38;100213.91;7368924;19;20014;-59
2023/09/01 06:23:22;;;;;;;0.10;0.10;;;;;;;18.48;66.31;100212.94;7355081;19;20854;-60
2023/09/01 06:25:48;;;;;;;0.10;0.10;;;;;;;18.48;66.83;100228.81;7362186;19;20006;-58
2023/09/01 06:28:13;;;;;;;0.00;0.00;;;;;;;18.48;66.53;100227.97;7355993;19;20015;-58
2023/09/01 06:30:41;;;;;;;0.10;0.10;;;;;;;18.35;66.81;100210.25;7364519;19;20126;-59
2023/09/01 06:33:08;;;;;;;;;;;;;;;18.52;64.84;100232.97;7370685;19;20031;-59
2023/09/01 06:35:33;;;;;;;0.00;0.00;;;;;;;18.41;66.22;100223.06;7365910;19;19931;-59
2023/09/01 06:38:00;;;;;;;0.10;0.10;;;;;;;18.45;66.43;100241.34;7368706;19;20010;-60
2023/09/01 06:40:25;;;;;;;0.00;0.00;;;;;;;18.42;66.74;100237.97;7370135;19;20014;-60
2023/09/01 06:42:51;;;;;;;0.10;0.10;;;;;;;18.41;66.60;100246.00;7364657;19;20006;-60
2023/09/01 06:45:16;;;;;;;0.10;0.10;;;;;;;18.40;66.56;100245.16;7367567;19;20442;-59
2023/09/01 06:47:41;;;;;;;0.00;0.00;;;;;;;18.39;66.82;100243.44;7365888;19;20485;-57
2023/09/01 06:50:07;;;;;;;0.00;0.00;;;;;;;18.38;67.07;100241.75;7365681;19;20013;-59
2023/09/01 06:52:33;;;;;;;0.10;0.10;;;;;;;18.40;66.80;100250.44;7370400;19;20309;-59
2023/09/01 06:54:58;;;;;;;0.05;0.05;;;;;;;18.39;67.10;100256.66;7343543;19;20756;-58
2023/09/01 06:57:23;;;;;;;0.10;0.10;;;;;;;18.39;67.35;100261.09;7358182;19;20022;-59
2023/09/01 06:59:49;;;;;;;0.10;0.10;;;;;;;18.39;67.30;100259.31;7365017;19;20003;-60
2023/09/01 07:02:14;;;;;;;0.10;0.10;;;;;;;18.40;67.28;100265.47;7363894;19;20022;-60
2023/09/01 07:04:40;;;;;;;0.05;0.05;;;;;;;18.40;67.18;100271.59;7366526;19;20561;-59
2023/09/01 07:07:05;;;;;;;0.05;0.05;;;;;;;18.40;66.81;100274.25;7364560;19;20010;-60
2023/09/01 07:09:30;;;;;;;0.03;0.03;;;;;;;18.40;67.13;100276.03;7367061;19;20006;-58
2023/09/01 07:11:58;;;;;;;0.00;0.00;;;;;;;18.41;67.32;100280.38;7369514;19;20029;-61
2023/09/01 07:14:23;;;;;;;0.10;0.10;;;;;;;18.40;66.98;100284.81;7367203;19;20022;-59
2023/09/01 07:16:49;;;;;;;0.10;0.10;;;;;;;18.41;66.90;100289.16;7374132;19;20003;-59
2023/09/01 07:19:14;;;;;;;0.00;0.00;;;;;;;18.39;67.05;100283.09;7368528;19;20023;-59
2023/09/01 07:21:40;;;;;;;0.10;0.10;;;;;;;18.44;67.28;100287.25;7369820;19;20044;-60
2023/09/01 07:24:05;;;;;;;0.00;0.00;;;;;;;18.44;67.44;100292.53;7368384;19;20010;-60
2023/09/01 07:26:31;;;;;;;0.10;0.10;;;;;;;18.46;67.07;100295.97;7369504;19;20015;-58
2023/09/01 07:28:56;;;;;;;0.00;0.00;;;;;;;18.47;67.22;100302.94;7374410;19;20096;-60
2023/09/01 07:31:23;;;;;;;0.10;0.10;;;;;;;18.48;67.31;100300.19;7366993;19;20027;-60
2023/09/01 07:33:48;;;;;;;0.10;0.10;;;;;;;18.46;67.15;100301.25;7370248;19;19999;-60
2023/09/01 07:36:14;;;;;;;0.03;0.03;;;;;;;18.50;67.04;100305.38;7368865;19;20497;-59
2023/09/01 07:38:40;;;;;;;0.10;0.10;;;;;;;18.50;67.42;100308.91;7362909;19;20019;-59
2023/09/01 07:41:07;;;;;;;0.10;0.10;;;;;;;18.44;67.28;100292.53;7368605;19;20014;-60
2023/09/01 07:43:34;;;;;;;0.10;0.10;;;;;;;18.53;67.29;100307.84;7368090;19;21797;-61
2023/09/01 07:46:00;;;;;;;0.10;0.10;;;;;;;18.54;67.35;100307.75;7358897;19;20591;-58
2023/09/01 07:48:26;;;;;;;0.10;0.10;;;;;;;18.55;67.21;100311.22;7361761;19;20006;-60
2023/09/01 07:50:51;;;;;;;0.10;0.10;;;;;;;18.56;67.23;100313.81;7368357;19;20030;-59
2023/09/01 07:53:17;;;;;;;0.10;0.10;;;;;;;18.58;67.31;100326.91;7367390;19;20018;-59
2023/09/01 07:55:42;;;;;;;0.10;0.10;;;;;;;18.60;67.15;100322.38;7366703;19;20015;-58
2023/09/01 07:58:08;;;;;;;0.00;0.00;;;;;;;18.61;67.31;100324.09;7370361;19;20006;-60
2023/09/01 08:00:35;;;;;;;0.10;0.10;;;;;;;18.63;67.38;100325.69;7367316;19;20780;-58
2023/09/01 08:03:00;;;;;;;0.10;0.10;;;;;;;18.66;67.51;100329.94;7367336;19;20110;-59
2023/09/01 08:05:26;;;;;;;0.10;0.10;;;;;;;18.68;67.68;100333.38;7367846;19;20022;-59
2023/09/01 08:07:53;;;;;;;0.10;0.10;;;;;;;18.71;67.68;100333.19;7369829;19;20007;-59
2023/09/01 08:10:18;;;;;;;0.10;0.10;;;;;;;18.72;67.41;100334.03;7367557;19;20011;-59
2023/09/01 08:12:44;;;;;;;0.00;0.00;;;;;;;18.75;67.66;100345.25;7369013;19;20010;-59
2023/09/01 08:15:10;;;;;;;0.10;0.10;;;;;;;18.77;67.71;100338.09;7367058;19;20494;-61
2023/09/01 08:17:35;;;;;;;0.10;0.10;;;;;;;18.80;67.42;100340.53;7362939;19;20493;-57
2023/09/01 08:20:03;;;;;;;0.10;0.10;;;;;;;18.85;67.41;100342.88;7360243;19;20011;-57
2023/09/01 08:22:30;;;;;;;0.10;0.10;;;;;;;18.88;67.36;100346.19;7366011;19;20226;-59
2023/09/01 08:24:55;;;;;;;0.10;0.10;;;;;;;18.90;67.15;100339.00;7366282;19;20014;-60
2023/09/01 08:27:20;;;;;;;0.10;0.10;;;;;;;18.97;67.46;100349.22;7362083;19;20029;-59
2023/09/01 08:29:46;;;;;;;0.10;0.10;;;;;;;19.02;67.42;100352.44;7363992;19;20022;-60
2023/09/01 08:32:11;;;;;;;0.10;0.10;;;;;;;19.07;67.24;100345.06;7374322;19;20002;-59
2023/09/01 08:34:37;;;;;;;0.10;0.10;;;;;;;19.12;67.08;100353.53;7370282;19;20037;-58
2023/09/01 08:37:03;;;;;;;0.10;0.10;;;;;;;19.16;67.01;100355.06;7372228;19;20007;-59
2023/09/01 08:39:28;;;;;;;0.10;0.10;;;;;;;19.22;67.05;100354.66;7369282;19;20010;-60
2023/09/01 08:41:54;;;;;;;0.10;0.10;;;;;;;19.26;67.04;100356.16;7366420;19;20500;-59
2023/09/01 08:44:26;;;;;;;0.10;0.10;;;;;;;19.37;66.96;100358.97;7359072;19;20826;-60
2023/09/01 08:46:57;;;;;;;0.10;0.10;;;;;;;19.40;67.06;100363.19;7364756;19;20046;-59
2023/09/01 08:49:25;;;;;;;0.10;0.10;;;;;;;19.48;67.22;100362.72;7363486;19;20014;-58
2023/09/01 08:51:57;;;;;;;0.10;0.10;;;;;;;19.54;67.40;100363.16;7362949;19;20010;-60
2023/09/01 08:54:23;;;;;;;0.10;0.10;;;;;;;19.64;67.12;100366.09;7360541;19;20656;-60
2023/09/01 08:56:49;;;;;;;0.03;0.03;;;;;;;19.72;67.11;100369.09;7363207;19;20363;-59
2023/09/01 08:59:14;;;;;;;0.05;0.05;;;;;;;19.82;66.87;100369.31;7361805;19;20007;-59
2023/09/01 09:01:40;;;;;;;0.10;0.10;;;;;;;19.92;66.96;100381.88;7364752;19;20584;-60
2023/09/01 09:04:06;;;;;;;0.10;0.10;;;;;;;19.95;66.87;100368.38;7361745;19;20002;-60
2023/09/01 09:06:37;;;;;;;0.10;0.10;;;;;;;20.19;66.67;100384.47;7363944;19;20522;-60
2023/09/01 09:09:07;;;;;;;0.10;0.10;;;;;;;20.30;66.18;100389.03;7362195;19;20040;-58
2023/09/01 09:11:33;;;;;;;0.10;0.10;;;;;;;20.37;66.66;100387.63;7364065;19;20021;-59
2023/09/01 09:13:58;;;;;;;0.10;0.10;;;;;;;20.40;66.33;100379.47;7359755;19;20002;-60
2023/09/01 09:16:24;;;;;;;0.10;0.10;;;;;;;20.56;65.90;100387.25;7364508;19;20014;-58
2023/09/01 09:18:49;;;;;;;0.10;0.10;;;;;;;20.67;65.76;100387.34;7366198;19;20016;-58
2023/09/01 09:21:29;;;;;;;0.10;0.10;;;;;;;20.85;65.98;100393.19;7361532;19;20002;-59
2023/09/01 09:23:56;;;;;;;0.10;0.10;;;;;;;20.87;66.06;100396.56;7341829;19;20019;-60
2023/09/01 09:26:30;;;;;;;0.10;0.10;;;;;;;21.06;65.89;100404.09;7362463;19;20090;-58
2023/09/01 09:29:06;;;;;;;0.10;0.10;;;;;;;21.18;65.80;100402.38;7357620;19;20010;-59
2023/09/01 09:31:36;;;;;;;0.10;0.10;;;;;;;21.32;65.60;100412.88;7357056;19;20103;-58
2023/09/01 09:34:15;;;;;;;0.10;0.10;;;;;;;21.62;65.65;100415.13;7358826;19;20021;-60
2023/09/01 09:36:41;;;;;;;0.03;0.03;;;;;;;21.73;64.89;100417.00;7362698;19;20018;-60
2023/09/01 09:39:20;;;;;;;0.10;0.10;;;;;;;22.05;65.01;100424.38;7359562;19;19999;-59
2023/09/01 09:41:46;;;;;;;0.10;0.10;;;;;;;22.14;64.61;100418.41;7359685;19;20014;-58
2023/09/01 09:44:12;;;;;;;0.10;0.10;;;;;;;22.30;63.90;100421.59;7361987;19;20038;-59
2023/09/01 09:46:44;;;;;;;0.10;0.10;;;;;;;22.50;64.16;100418.25;7360321;19;21067;-59
2023/09/01 09:49:14;;;;;;;0.10;0.10;;;;;;;22.63;63.94;100422.63;7365234;19;20094;-59
2023/09/01 09:51:42;;;;;;;0.10;0.10;;;;;;;22.73;64.02;100424.47;7370119;19;20023;-60
2023/09/01 09:54:10;;;;;;;0.10;0.10;;;;;;;22.85;63.94;100422.66;7360975;19;20043;-59
2023/09/01 09:56:38;;;;;;;0.10;0.10;;;;;;;22.96;63.54;100422.72;7363046;19;20018;-60
2023/09/01 09:59:05;;;;;;;0.10;0.10;;;;;;;23.02;63.56;100419.56;7359441;19;20133;-60
2023/09/01 10:01:34;;;;;;;0.10;0.10;;;;;;;23.13;63.30;100421.34;7360273;19;20418;-60
2023/09/01 10:04:04;;;;;;;0.10;0.10;;;;;;;23.24;63.35;100425.81;7360546;19;20019;-60
2023/09/01 10:06:40;;;;;;;0.10;0.10;;;;;;;23.26;62.87;100432.72;7369679;19;20033;-60
2023/09/01 10:09:08;;;;;;;0.10;0.10;;;;;;;23.31;63.12;100427.88;7367335;19;20017;-59
2023/09/01 10:11:33;;;;;;;0.10;0.10;;;;;;;23.34;62.92;100433.94;7369738;19;20041;-59
2023/09/01 10:14:00;;;;;;;0.10;0.10;;;;;;;23.38;63.37;100430.91;7368333;19;20002;-60
2023/09/01 10:16:27;;;;;;;0.10;0.10;;;;;;;23.41;62.92;100430.63;7367700;19;20476;-60
2023/09/01 10:18:53;;;;;;;0.00;0.00;;;;;;;23.48;63.17;100436.34;7368160;19;20457;-60
2023/09/01 10:21:20;;;;;;;0.10;0.10;;;;;;;23.53;63.15;100428.81;7373020;19;20014;-59
2023/09/01 10:23:46;;;;;;;0.10;0.10;;;;;;;23.61;63.25;100429.03;7366524;19;21422;-58
2023/09/01 10:26:28;;;;;;;0.10;0.10;;;;;;;23.73;63.00;100424.56;7375818;19;20018;-58
2023/09/01 10:29:00;;;;;;;0.10;0.10;;;;;;;23.84;63.12;100434.34;7367528;19;20002;-59
2023/09/01 10:31:26;;;;;;;0.10;0.10;;;;;;;23.85;63.38;100418.19;7369628;19;20018;-59
2023/09/01 10:34:03;;;;;;;0.10;0.10;;;;;;;24.17;63.41;100423.50;7364602;19;20019;-58
2023/09/01 10:36:29;;;;;;;0.10;0.10;;;;;;;24.29;62.49;100430.50;7368137;19;20110;-58
2023/09/01 10:39:23;;;;;;;0.10;0.10;;;;;;;24.58;62.22;100433.41;7368802;19;20074;-60
2023/09/01 10:42:07;;;;;;;0.20;0.20;;;;;;;24.79;62.15;100429.84;7366957;19;20007;-58
2023/09/01 10:44:39;;;;;;;0.10;0.10;;;;;;;24.92;61.72;100435.81;7372101;19;20010;-60
2023/09/01 10:47:30;;;;;;;0.10;0.10;;;;;;;25.06;61.49;100447.97;7366087;19;20487;-60
2023/09/01 10:49:57;;;;;;;0.10;0.10;;;;;;;24.93;61.19;100425.97;7359529;19;20038;-60
2023/09/01 10:52:28;;;;;;;0.10;0.10;;;;;;;25.09;61.53;100437.03;7369913;19;20011;-61
2023/09/01 10:54:59;;;;;;;0.10;0.10;;;;;;;25.27;61.32;100445.25;7365424;19;19999;-60
2023/09/01 10:57:38;;;;;;;0.10;0.10;;;;;;;25.40;61.36;100445.88;7365916;19;20013;-60
2023/09/01 11:00:28;;;;;;;0.10;0.10;;;;;;;25.57;60.95;100442.53;7365258;19;20024;-60
2023/09/01 11:03:15;;;;;;;0.00;0.00;;;;;;;25.66;60.82;100446.22;7362404;19;20018;-59
2023/09/01 11:05:40;;;;;;;0.10;0.10;;;;;;;25.95;60.66;100446.25;7365978;19;20014;-61
2023/09/01 11:08:18;;;;;;;0.00;0.00;;;;;;;26.32;60.56;100450.94;7364104;19;20600;-55
2023/09/01 11:10:44;;;;;;;0.00;0.00;;;;;;;26.42;58.98;100454.47;7368544;19;20014;-60
2023/09/01 11:13:17;;;;;;;0.10;0.10;;;;;;;26.67;59.32;100453.00;7364303;19;20005;-61
2023/09/01 11:15:52;;;;;;;0.10;0.10;;;;;;;26.78;58.84;100450.16;7362217;19;20011;-58
2023/09/01 11:18:22;;;;;;;0.00;0.00;;;;;;;26.88;59.11;100459.00;7365958;19;20519;-59
2023/09/01 11:20:49;;;;;;;0.00;0.00;;;;;;;26.98;58.89;100461.66;7363782;19;20099;-59
2023/09/01 11:23:22;;;;;;;0.00;0.00;;;;;;;27.37;58.56;100461.50;7366865;19;20009;-60
2023/09/01 11:25:57;;;;;;;0.00;0.00;;;;;;;27.73;58.71;100445.50;7366046;19;20014;-61
2023/09/01 11:28:24;;;;;;;0.00;0.00;;;;;;;28.13;56.84;100459.34;7362772;19;20018;-60